sensor_id;sensor_type;location;lat;lon;timestamp;pressure;altitude;pressure_sealevel;temperature;humidity
68329;BME280;55182;56.864;60.554;2023-12-07T00:00:26;81294.44;;;-143.60;74.14
68329;BME280;55182;56.864;60.554;2023-12-07T00:02:52;81302.47;;;-143.60;74.01
68329;BME280;55182;56.864;60.554;2023-12-07T00:05:17;81306.50;;;-143.60;73.98
68329;BME280;55182;56.864;60.554;2023-12-07T00:07:43;81306.50;;;-143.60;73.91
68329;BME280;55182;56.864;60.554;2023-12-07T00:10:08;81304.47;;;-143.60;74.04
68329;BME280;55182;56.864;60.554;2023-12-07T00:12:34;81310.53;;;-143.60;74.05
68329;BME280;55182;56.864;60.554;2023-12-07T00:14:59;81322.59;;;-143.60;73.83
68329;BME280;55182;56.864;60.554;2023-12-07T00:17:25;81328.63;;;-143.60;74.10
68329;BME280;55182;56.864;60.554;2023-12-07T00:19:50;81330.66;;;-143.60;74.17
68329;BME280;55182;56.864;60.554;2023-12-07T00:22:16;81332.66;;;-143.60;74.34
68329;BME280;55182;56.864;60.554;2023-12-07T00:24:41;81334.66;;;-143.60;74.24
68329;BME280;55182;56.864;60.554;2023-12-07T00:27:07;81346.75;;;-143.60;74.08
68329;BME280;55182;56.864;60.554;2023-12-07T00:29:32;81350.75;;;-143.60;74.35
68329;BME280;55182;56.864;60.554;2023-12-07T00:31:58;81346.75;;;-143.60;74.30
68329;BME280;55182;56.864;60.554;2023-12-07T00:34:23;81346.75;;;-143.60;74.56
68329;BME280;55182;56.864;60.554;2023-12-07T00:36:49;81344.72;;;-143.60;74.43
68329;BME280;55182;56.864;60.554;2023-12-07T00:39:14;81338.69;;;-143.60;74.37
68329;BME280;55182;56.864;60.554;2023-12-07T00:41:40;81342.72;;;-143.60;74.66
68329;BME280;55182;56.864;60.554;2023-12-07T00:44:05;81342.72;;;-143.60;74.46
68329;BME280;55182;56.864;60.554;2023-12-07T00:46:31;81340.69;;;-143.60;74.47
68329;BME280;55182;56.864;60.554;2023-12-07T00:48:56;81340.69;;;-143.60;74.42
68329;BME280;55182;56.864;60.554;2023-12-07T00:51:22;81342.72;;;-143.60;74.49
68329;BME280;55182;56.864;60.554;2023-12-07T00:53:47;81338.69;;;-143.60;74.18
68329;BME280;55182;56.864;60.554;2023-12-07T00:56:13;81336.69;;;-143.60;74.13
68329;BME280;55182;56.864;60.554;2023-12-07T00:58:39;81338.69;;;-143.60;74.12
68329;BME280;55182;56.864;60.554;2023-12-07T01:01:04;81338.69;;;-143.60;73.75
68329;BME280;55182;56.864;60.554;2023-12-07T01:03:30;81342.72;;;-143.60;73.52
68329;BME280;55182;56.864;60.554;2023-12-07T01:05:55;81350.75;;;-143.60;73.57
68329;BME280;55182;56.864;60.554;2023-12-07T01:08:21;81350.75;;;-143.60;73.71
68329;BME280;55182;56.864;60.554;2023-12-07T01:10:46;81358.81;;;-143.60;73.50
68329;BME280;55182;56.864;60.554;2023-12-07T01:13:12;81368.88;;;-143.60;73.78
68329;BME280;55182;56.864;60.554;2023-12-07T01:15:37;81372.91;;;-143.60;73.82
68329;BME280;55182;56.864;60.554;2023-12-07T01:18:03;81372.91;;;-143.60;73.73
68329;BME280;55182;56.864;60.554;2023-12-07T01:20:28;81384.97;;;-143.60;73.98
68329;BME280;55182;56.864;60.554;2023-12-07T01:22:54;81384.97;;;-143.60;73.92
68329;BME280;55182;56.864;60.554;2023-12-07T01:25:19;81386.97;;;-143.60;73.88
68329;BME280;55182;56.864;60.554;2023-12-07T01:27:45;81395.03;;;-143.60;73.75
68329;BME280;55182;56.864;60.554;2023-12-07T01:30:10;81399.06;;;-143.60;73.47
68329;BME280;55182;56.864;60.554;2023-12-07T01:32:36;81399.06;;;-143.60;73.45
68329;BME280;55182;56.864;60.554;2023-12-07T01:35:01;81403.06;;;-143.60;73.31
68329;BME280;55182;56.864;60.554;2023-12-07T01:37:26;81403.06;;;-143.60;73.33
68329;BME280;55182;56.864;60.554;2023-12-07T01:39:52;81411.13;;;-143.60;73.33
68329;BME280;55182;56.864;60.554;2023-12-07T01:42:17;81411.13;;;-143.60;73.54
68329;BME280;55182;56.864;60.554;2023-12-07T01:44:43;81413.13;;;-143.60;73.63
68329;BME280;55182;56.864;60.554;2023-12-07T01:47:09;81419.19;;;-143.60;73.82
68329;BME280;55182;56.864;60.554;2023-12-07T01:49:34;81421.19;;;-143.60;73.57
68329;BME280;55182;56.864;60.554;2023-12-07T01:52:01;81427.22;;;-143.60;73.79
68329;BME280;55182;56.864;60.554;2023-12-07T01:54:27;81431.25;;;-143.60;73.77
68329;BME280;55182;56.864;60.554;2023-12-07T01:56:52;81433.25;;;-143.60;73.88
68329;BME280;55182;56.864;60.554;2023-12-07T01:59:18;81431.25;;;-143.60;73.96
68329;BME280;55182;56.864;60.554;2023-12-07T02:01:43;81439.28;;;-143.60;73.95
68329;BME280;55182;56.864;60.554;2023-12-07T02:04:10;81439.28;;;-143.60;73.98
68329;BME280;55182;56.864;60.554;2023-12-07T02:06:35;81439.28;;;-143.60;73.85
68329;BME280;55182;56.864;60.554;2023-12-07T02:09:01;81451.38;;;-143.60;73.78
68329;BME280;55182;56.864;60.554;2023-12-07T02:11:27;81459.41;;;-143.60;73.44
68329;BME280;55182;56.864;60.554;2023-12-07T02:13:52;81463.44;;;-143.60;73.41
68329;BME280;55182;56.864;60.554;2023-12-07T02:16:21;81469.47;;;-143.60;73.36
68329;BME280;55182;56.864;60.554;2023-12-07T02:18:58;81487.59;;;-143.60;73.16
68329;BME280;55182;56.864;60.554;2023-12-07T02:23:54;81501.66;;;-143.60;73.36
68329;BME280;55182;56.864;60.554;2023-12-07T02:26:36;81509.72;;;-143.60;73.31
68329;BME280;55182;56.864;60.554;2023-12-07T02:29:03;81523.81;;;-143.60;73.30
68329;BME280;55182;56.864;60.554;2023-12-07T02:31:28;81531.84;;;-143.60;73.43
68329;BME280;55182;56.864;60.554;2023-12-07T02:33:54;81539.91;;;-143.60;73.48
68329;BME280;55182;56.864;60.554;2023-12-07T02:36:20;81547.94;;;-143.60;73.44
68329;BME280;55182;56.864;60.554;2023-12-07T02:38:47;81556.00;;;-143.60;73.24
68329;BME280;55182;56.864;60.554;2023-12-07T02:41:14;81549.97;;;-143.60;73.33
68329;BME280;55182;56.864;60.554;2023-12-07T02:43:42;81554.00;;;-143.60;73.30
68329;BME280;55182;56.864;60.554;2023-12-07T02:46:07;81562.03;;;-143.60;73.28
68329;BME280;55182;56.864;60.554;2023-12-07T02:48:33;81572.09;;;-143.60;73.32
68329;BME280;55182;56.864;60.554;2023-12-07T02:50:58;81580.16;;;-143.60;73.45
68329;BME280;55182;56.864;60.554;2023-12-07T02:53:24;81584.19;;;-143.60;73.52
68329;BME280;55182;56.864;60.554;2023-12-07T02:55:49;81586.19;;;-143.60;73.98
68329;BME280;55182;56.864;60.554;2023-12-07T02:58:15;81576.13;;;-143.60;73.96
68329;BME280;55182;56.864;60.554;2023-12-07T03:00:40;81582.16;;;-143.60;73.95
68329;BME280;55182;56.864;60.554;2023-12-07T03:03:06;81572.09;;;-143.60;73.98
68329;BME280;55182;56.864;60.554;2023-12-07T03:05:32;81582.16;;;-143.60;73.90
68329;BME280;55182;56.864;60.554;2023-12-07T03:07:57;81584.19;;;-143.60;73.69
68329;BME280;55182;56.864;60.554;2023-12-07T03:10:23;81586.19;;;-143.60;73.49
68329;BME280;55182;56.864;60.554;2023-12-07T03:12:48;81592.22;;;-143.60;73.76
68329;BME280;55182;56.864;60.554;2023-12-07T03:15:14;81584.19;;;-143.60;73.56
68329;BME280;55182;56.864;60.554;2023-12-07T03:17:39;81596.25;;;-143.60;73.72
68329;BME280;55182;56.864;60.554;2023-12-07T03:20:05;81592.22;;;-143.60;73.72
68329;BME280;55182;56.864;60.554;2023-12-07T03:22:31;81592.22;;;-143.60;73.75
68329;BME280;55182;56.864;60.554;2023-12-07T03:24:56;81604.28;;;-143.60;73.68
68329;BME280;55182;56.864;60.554;2023-12-07T03:27:22;81608.31;;;-143.60;73.77
68329;BME280;55182;56.864;60.554;2023-12-07T03:29:47;81596.25;;;-143.60;73.84
68329;BME280;55182;56.864;60.554;2023-12-07T03:32:13;81610.34;;;-143.60;73.83
68329;BME280;55182;56.864;60.554;2023-12-07T03:34:39;81618.38;;;-143.60;73.85
68329;BME280;55182;56.864;60.554;2023-12-07T03:37:04;81612.34;;;-143.60;73.65
68329;BME280;55182;56.864;60.554;2023-12-07T03:39:30;81620.41;;;-143.60;73.62
68329;BME280;55182;56.864;60.554;2023-12-07T03:41:55;81616.38;;;-143.60;73.46
68329;BME280;55182;56.864;60.554;2023-12-07T03:44:21;81620.41;;;-143.60;73.49
68329;BME280;55182;56.864;60.554;2023-12-07T03:46:46;81624.41;;;-143.60;73.51
68329;BME280;55182;56.864;60.554;2023-12-07T03:49:12;81628.44;;;-143.60;73.41
68329;BME280;55182;56.864;60.554;2023-12-07T03:51:37;81636.50;;;-143.60;73.49
68329;BME280;55182;56.864;60.554;2023-12-07T03:54:03;81628.44;;;-143.60;73.38
68329;BME280;55182;56.864;60.554;2023-12-07T03:56:29;81628.44;;;-143.60;73.57
68329;BME280;55182;56.864;60.554;2023-12-07T03:58:55;81632.47;;;-143.60;73.41
68329;BME280;55182;56.864;60.554;2023-12-07T04:01:27;81624.41;;;-143.60;73.28
68329;BME280;55182;56.864;60.554;2023-12-07T04:03:54;81628.44;;;-143.60;73.17
68329;BME280;55182;56.864;60.554;2023-12-07T04:06:20;81624.41;;;-143.60;73.28
68329;BME280;55182;56.864;60.554;2023-12-07T04:08:45;81612.34;;;-143.60;73.38
68329;BME280;55182;56.864;60.554;2023-12-07T04:11:11;81624.41;;;-143.60;73.22
68329;BME280;55182;56.864;60.554;2023-12-07T04:13:37;81616.38;;;-143.60;73.30
68329;BME280;55182;56.864;60.554;2023-12-07T04:16:02;81620.41;;;-143.60;72.93
68329;BME280;55182;56.864;60.554;2023-12-07T04:18:28;81628.44;;;-143.60;73.04
68329;BME280;55182;56.864;60.554;2023-12-07T04:20:54;81644.53;;;-143.60;72.74
68329;BME280;55182;56.864;60.554;2023-12-07T04:23:19;81652.59;;;-143.60;72.65
68329;BME280;55182;56.864;60.554;2023-12-07T04:25:45;81664.66;;;-143.60;72.51
68329;BME280;55182;56.864;60.554;2023-12-07T04:28:10;81660.63;;;-143.60;72.59
68329;BME280;55182;56.864;60.554;2023-12-07T04:30:36;81658.63;;;-143.60;72.58
68329;BME280;55182;56.864;60.554;2023-12-07T04:33:01;81660.63;;;-143.60;72.63
68329;BME280;55182;56.864;60.554;2023-12-07T04:35:27;81672.72;;;-143.60;72.66
68329;BME280;55182;56.864;60.554;2023-12-07T04:37:52;81668.69;;;-143.60;72.86
68329;BME280;55182;56.864;60.554;2023-12-07T04:40:18;81666.69;;;-143.60;73.05
68329;BME280;55182;56.864;60.554;2023-12-07T04:42:43;81664.66;;;-143.60;73.01
68329;BME280;55182;56.864;60.554;2023-12-07T04:45:09;81660.63;;;-143.60;73.13
68329;BME280;55182;56.864;60.554;2023-12-07T04:47:34;81664.66;;;-143.60;72.94
68329;BME280;55182;56.864;60.554;2023-12-07T04:50:00;81660.63;;;-143.60;72.94
68329;BME280;55182;56.864;60.554;2023-12-07T04:52:25;81654.59;;;-143.60;72.90
68329;BME280;55182;56.864;60.554;2023-12-07T04:54:51;81652.59;;;-143.60;72.76
68329;BME280;55182;56.864;60.554;2023-12-07T04:57:16;81650.56;;;-143.60;72.63
68329;BME280;55182;56.864;60.554;2023-12-07T04:59:42;81652.59;;;-143.60;72.76
68329;BME280;55182;56.864;60.554;2023-12-07T05:02:07;81652.59;;;-143.60;72.91
68329;BME280;55182;56.864;60.554;2023-12-07T05:04:33;81652.59;;;-143.60;73.09
68329;BME280;55182;56.864;60.554;2023-12-07T05:06:58;81636.50;;;-143.60;73.20
68329;BME280;55182;56.864;60.554;2023-12-07T05:09:24;81634.47;;;-143.60;73.30
68329;BME280;55182;56.864;60.554;2023-12-07T05:11:49;81626.44;;;-143.60;73.20
68329;BME280;55182;56.864;60.554;2023-12-07T05:14:15;81634.47;;;-143.60;73.19
68329;BME280;55182;56.864;60.554;2023-12-07T05:16:41;81634.47;;;-143.60;73.23
68329;BME280;55182;56.864;60.554;2023-12-07T05:19:06;81634.47;;;-143.60;73.17
68329;BME280;55182;56.864;60.554;2023-12-07T05:21:31;81628.44;;;-143.60;73.09
68329;BME280;55182;56.864;60.554;2023-12-07T05:23:57;81628.44;;;-143.60;73.07
68329;BME280;55182;56.864;60.554;2023-12-07T05:26:22;81624.41;;;-143.60;72.84
68329;BME280;55182;56.864;60.554;2023-12-07T05:28:48;81618.38;;;-143.60;72.75
68329;BME280;55182;56.864;60.554;2023-12-07T05:31:17;81628.44;;;-143.60;72.60
68329;BME280;55182;56.864;60.554;2023-12-07T05:33:43;81626.44;;;-143.60;72.44
68329;BME280;55182;56.864;60.554;2023-12-07T05:36:08;81626.44;;;-143.60;72.83
68329;BME280;55182;56.864;60.554;2023-12-07T05:38:34;81628.44;;;-143.60;72.58
68329;BME280;55182;56.864;60.554;2023-12-07T05:40:59;81642.53;;;-143.60;72.42
68329;BME280;55182;56.864;60.554;2023-12-07T05:43:25;81640.50;;;-143.60;72.18
68329;BME280;55182;56.864;60.554;2023-12-07T05:45:50;81644.53;;;-143.60;72.05
68329;BME280;55182;56.864;60.554;2023-12-07T05:48:16;81636.50;;;-143.60;72.24
68329;BME280;55182;56.864;60.554;2023-12-07T05:50:41;81636.50;;;-143.60;72.31
68329;BME280;55182;56.864;60.554;2023-12-07T05:53:07;81632.47;;;-143.60;72.75
68329;BME280;55182;56.864;60.554;2023-12-07T05:55:32;81618.38;;;-143.60;72.94
68329;BME280;55182;56.864;60.554;2023-12-07T05:57:58;81612.34;;;-143.60;72.92
68329;BME280;55182;56.864;60.554;2023-12-07T06:00:23;81600.28;;;-143.60;72.61
68329;BME280;55182;56.864;60.554;2023-12-07T06:02:49;81610.34;;;-143.60;72.29
68329;BME280;55182;56.864;60.554;2023-12-07T06:05:14;81608.31;;;-143.60;72.48
68329;BME280;55182;56.864;60.554;2023-12-07T06:07:40;81606.31;;;-143.60;72.25
68329;BME280;55182;56.864;60.554;2023-12-07T06:10:05;81606.31;;;-143.60;72.27
68329;BME280;55182;56.864;60.554;2023-12-07T06:12:31;81604.28;;;-143.60;72.18
68329;BME280;55182;56.864;60.554;2023-12-07T06:14:56;81610.34;;;-143.60;72.16
68329;BME280;55182;56.864;60.554;2023-12-07T06:17:22;81626.44;;;-143.60;71.79
68329;BME280;55182;56.864;60.554;2023-12-07T06:19:47;81632.47;;;-143.60;71.78
68329;BME280;55182;56.864;60.554;2023-12-07T06:22:13;81624.41;;;-143.60;71.50
68329;BME280;55182;56.864;60.554;2023-12-07T06:24:38;81638.50;;;-143.60;71.63
68329;BME280;55182;56.864;60.554;2023-12-07T06:27:04;81636.50;;;-143.60;71.74
68329;BME280;55182;56.864;60.554;2023-12-07T06:29:29;81648.56;;;-143.60;71.77
68329;BME280;55182;56.864;60.554;2023-12-07T06:31:55;81636.50;;;-143.60;71.79
68329;BME280;55182;56.864;60.554;2023-12-07T06:34:20;81634.47;;;-143.60;71.86
68329;BME280;55182;56.864;60.554;2023-12-07T06:36:46;81634.47;;;-143.60;71.11
68329;BME280;55182;56.864;60.554;2023-12-07T06:39:12;81648.56;;;-143.60;71.17
68329;BME280;55182;56.864;60.554;2023-12-07T06:41:37;81652.59;;;-143.60;71.02
68329;BME280;55182;56.864;60.554;2023-12-07T06:44:03;81656.63;;;-143.60;70.95
68329;BME280;55182;56.864;60.554;2023-12-07T06:46:28;81656.63;;;-143.60;71.06
68329;BME280;55182;56.864;60.554;2023-12-07T06:48:54;81648.56;;;-143.60;71.08
68329;BME280;55182;56.864;60.554;2023-12-07T06:51:19;81644.53;;;-143.60;71.35
68329;BME280;55182;56.864;60.554;2023-12-07T06:53:45;81644.53;;;-143.60;71.37
68329;BME280;55182;56.864;60.554;2023-12-07T06:56:10;81626.44;;;-143.60;71.21
68329;BME280;55182;56.864;60.554;2023-12-07T06:58:36;81624.41;;;-143.60;71.13
68329;BME280;55182;56.864;60.554;2023-12-07T07:01:01;81628.44;;;-143.60;71.08
68329;BME280;55182;56.864;60.554;2023-12-07T07:03:27;81620.41;;;-143.60;70.83
68329;BME280;55182;56.864;60.554;2023-12-07T07:05:53;81616.38;;;-143.60;71.22
68329;BME280;55182;56.864;60.554;2023-12-07T07:08:18;81614.34;;;-143.60;71.20
68329;BME280;55182;56.864;60.554;2023-12-07T07:10:44;81608.31;;;-143.60;71.15
68329;BME280;55182;56.864;60.554;2023-12-07T07:13:09;81608.31;;;-143.60;71.07
68329;BME280;55182;56.864;60.554;2023-12-07T07:15:35;81590.22;;;-143.60;71.27
68329;BME280;55182;56.864;60.554;2023-12-07T07:18:00;81584.19;;;-143.60;71.26
68329;BME280;55182;56.864;60.554;2023-12-07T07:20:26;81586.19;;;-143.60;71.49
68329;BME280;55182;56.864;60.554;2023-12-07T07:22:52;81568.06;;;-143.60;71.16
68329;BME280;55182;56.864;60.554;2023-12-07T07:25:17;81562.03;;;-143.60;71.00
68329;BME280;55182;56.864;60.554;2023-12-07T07:27:43;81537.91;;;-143.60;70.87
68329;BME280;55182;56.864;60.554;2023-12-07T07:30:08;81535.88;;;-143.60;70.62
68329;BME280;55182;56.864;60.554;2023-12-07T07:32:34;81554.00;;;-143.60;70.62
68329;BME280;55182;56.864;60.554;2023-12-07T07:34:59;81551.97;;;-143.60;70.54
68329;BME280;55182;56.864;60.554;2023-12-07T07:37:25;81549.97;;;-143.60;70.36
68329;BME280;55182;56.864;60.554;2023-12-07T07:39:51;81543.94;;;-143.60;70.40
68329;BME280;55182;56.864;60.554;2023-12-07T07:42:16;81545.94;;;-143.60;70.53
68329;BME280;55182;56.864;60.554;2023-12-07T07:44:42;81541.91;;;-143.60;70.44
68329;BME280;55182;56.864;60.554;2023-12-07T07:47:07;81539.91;;;-143.60;70.76
68329;BME280;55182;56.864;60.554;2023-12-07T07:49:33;81527.84;;;-143.60;70.84
68329;BME280;55182;56.864;60.554;2023-12-07T07:51:58;81511.72;;;-143.60;70.85
68329;BME280;55182;56.864;60.554;2023-12-07T07:54:24;81507.72;;;-143.60;70.71
68329;BME280;55182;56.864;60.554;2023-12-07T07:56:49;81503.69;;;-143.60;70.40
68329;BME280;55182;56.864;60.554;2023-12-07T07:59:15;81491.63;;;-143.60;70.32
68329;BME280;55182;56.864;60.554;2023-12-07T08:01:40;81497.66;;;-143.60;69.93
68329;BME280;55182;56.864;60.554;2023-12-07T08:04:06;81491.63;;;-143.60;70.11
68329;BME280;55182;56.864;60.554;2023-12-07T08:06:31;81477.53;;;-143.60;70.06
68329;BME280;55182;56.864;60.554;2023-12-07T08:08:57;81471.50;;;-143.60;70.17
68329;BME280;55182;56.864;60.554;2023-12-07T08:11:22;81455.41;;;-143.60;70.25
68329;BME280;55182;56.864;60.554;2023-12-07T08:13:48;81453.38;;;-143.60;69.98
68329;BME280;55182;56.864;60.554;2023-12-07T08:16:13;81443.31;;;-143.60;70.06
68329;BME280;55182;56.864;60.554;2023-12-07T08:18:39;81433.25;;;-143.60;70.06
68329;BME280;55182;56.864;60.554;2023-12-07T08:21:04;81427.22;;;-143.60;69.88
68329;BME280;55182;56.864;60.554;2023-12-07T08:23:30;81431.25;;;-143.60;69.65
68329;BME280;55182;56.864;60.554;2023-12-07T08:25:55;81443.31;;;-143.60;69.24
68329;BME280;55182;56.864;60.554;2023-12-07T08:28:21;81439.28;;;-143.60;69.38
68329;BME280;55182;56.864;60.554;2023-12-07T08:30:46;81433.25;;;-143.60;69.37
68329;BME280;55182;56.864;60.554;2023-12-07T08:33:12;81439.28;;;-143.60;69.29
68329;BME280;55182;56.864;60.554;2023-12-07T08:35:37;81441.31;;;-143.60;69.62
68329;BME280;55182;56.864;60.554;2023-12-07T08:38:03;81449.34;;;-143.60;69.56
68329;BME280;55182;56.864;60.554;2023-12-07T08:40:28;81455.41;;;-143.60;69.61
68329;BME280;55182;56.864;60.554;2023-12-07T08:42:54;81459.41;;;-143.60;69.44
68329;BME280;55182;56.864;60.554;2023-12-07T08:45:19;81451.38;;;-143.60;69.77
68329;BME280;55182;56.864;60.554;2023-12-07T08:47:45;81455.41;;;-143.60;69.96
68329;BME280;55182;56.864;60.554;2023-12-07T08:50:10;81447.34;;;-143.60;70.06
68329;BME280;55182;56.864;60.554;2023-12-07T08:52:36;81445.34;;;-143.60;70.19
68329;BME280;55182;56.864;60.554;2023-12-07T08:55:02;81435.28;;;-143.60;70.29
68329;BME280;55182;56.864;60.554;2023-12-07T08:57:27;81435.28;;;-143.60;70.29
68329;BME280;55182;56.864;60.554;2023-12-07T08:59:53;81427.22;;;-143.60;70.82
68329;BME280;55182;56.864;60.554;2023-12-07T09:02:18;81425.22;;;-143.60;70.70
68329;BME280;55182;56.864;60.554;2023-12-07T09:04:44;81429.22;;;-143.60;70.75
68329;BME280;55182;56.864;60.554;2023-12-07T09:07:09;81423.19;;;-143.60;70.88
68329;BME280;55182;56.864;60.554;2023-12-07T09:09:35;81427.22;;;-143.60;70.32
68329;BME280;55182;56.864;60.554;2023-12-07T09:12:00;81429.22;;;-143.60;70.33
68329;BME280;55182;56.864;60.554;2023-12-07T09:14:26;81431.25;;;-143.60;70.15
68329;BME280;55182;56.864;60.554;2023-12-07T09:16:51;81433.25;;;-143.60;70.04
68329;BME280;55182;56.864;60.554;2023-12-07T09:19:17;81431.25;;;-143.60;69.94
68329;BME280;55182;56.864;60.554;2023-12-07T09:21:43;81443.31;;;-143.60;69.79
68329;BME280;55182;56.864;60.554;2023-12-07T09:24:08;81437.28;;;-143.60;69.82
68329;BME280;55182;56.864;60.554;2023-12-07T09:26:34;81435.28;;;-143.60;70.06
68329;BME280;55182;56.864;60.554;2023-12-07T09:28:59;81423.19;;;-143.60;70.14
68329;BME280;55182;56.864;60.554;2023-12-07T09:31:25;81433.25;;;-143.60;70.11
68329;BME280;55182;56.864;60.554;2023-12-07T09:33:50;81439.28;;;-143.60;69.88
68329;BME280;55182;56.864;60.554;2023-12-07T09:36:16;81443.31;;;-143.60;69.78
68329;BME280;55182;56.864;60.554;2023-12-07T09:38:42;81451.38;;;-143.60;69.79
68329;BME280;55182;56.864;60.554;2023-12-07T09:41:07;81447.34;;;-143.60;69.98
68329;BME280;55182;56.864;60.554;2023-12-07T09:43:33;81447.34;;;-143.60;69.93
68329;BME280;55182;56.864;60.554;2023-12-07T09:45:58;81435.28;;;-143.60;69.83
68329;BME280;55182;56.864;60.554;2023-12-07T09:48:24;81437.28;;;-143.60;69.83
68329;BME280;55182;56.864;60.554;2023-12-07T09:50:50;81433.25;;;-143.60;69.59
68329;BME280;55182;56.864;60.554;2023-12-07T09:53:16;81435.28;;;-143.60;69.80
68329;BME280;55182;56.864;60.554;2023-12-07T09:55:41;81445.34;;;-143.60;69.99
68329;BME280;55182;56.864;60.554;2023-12-07T09:58:07;81447.34;;;-143.60;69.91
68329;BME280;55182;56.864;60.554;2023-12-07T10:00:32;81453.38;;;-143.60;69.49
68329;BME280;55182;56.864;60.554;2023-12-07T10:02:58;81463.44;;;-143.60;69.82
68329;BME280;55182;56.864;60.554;2023-12-07T10:05:23;81463.44;;;-143.60;69.97
68329;BME280;55182;56.864;60.554;2023-12-07T10:07:49;81473.50;;;-143.60;70.21
68329;BME280;55182;56.864;60.554;2023-12-07T10:10:18;81475.50;;;-143.60;69.83
68329;BME280;55182;56.864;60.554;2023-12-07T10:12:54;81473.50;;;-143.60;70.04
68329;BME280;55182;56.864;60.554;2023-12-07T10:15:20;81489.59;;;-143.60;69.96
68329;BME280;55182;56.864;60.554;2023-12-07T10:17:49;81487.59;;;-143.60;69.96
68329;BME280;55182;56.864;60.554;2023-12-07T10:20:16;81489.59;;;-143.60;69.79
68329;BME280;55182;56.864;60.554;2023-12-07T10:22:42;81495.63;;;-143.60;69.96
68329;BME280;55182;56.864;60.554;2023-12-07T10:25:07;81491.63;;;-143.60;70.26
68329;BME280;55182;56.864;60.554;2023-12-07T10:27:34;81491.63;;;-143.60;70.35
68329;BME280;55182;56.864;60.554;2023-12-07T10:30:00;81491.63;;;-143.60;70.27
68329;BME280;55182;56.864;60.554;2023-12-07T10:32:25;81483.56;;;-143.60;70.13
68329;BME280;55182;56.864;60.554;2023-12-07T10:34:51;81481.56;;;-143.60;69.77
68329;BME280;55182;56.864;60.554;2023-12-07T10:37:17;81467.47;;;-143.60;69.68
68329;BME280;55182;56.864;60.554;2023-12-07T10:39:42;81489.59;;;-143.60;69.62
68329;BME280;55182;56.864;60.554;2023-12-07T10:42:09;81485.56;;;-143.60;69.25
68329;BME280;55182;56.864;60.554;2023-12-07T10:44:35;81487.59;;;-143.60;69.56
68329;BME280;55182;56.864;60.554;2023-12-07T10:47:05;81499.66;;;-143.60;69.80
68329;BME280;55182;56.864;60.554;2023-12-07T10:49:31;81501.66;;;-143.60;70.19
68329;BME280;55182;56.864;60.554;2023-12-07T10:52:00;81503.69;;;-143.60;70.23
68329;BME280;55182;56.864;60.554;2023-12-07T10:55:16;81505.69;;;-143.60;70.30
68329;BME280;55182;56.864;60.554;2023-12-07T10:57:14;81511.72;;;-143.60;70.93
68329;BME280;55182;56.864;60.554;2023-12-07T10:59:41;81511.72;;;-143.60;71.11
68329;BME280;55182;56.864;60.554;2023-12-07T11:02:08;81515.75;;;-143.60;70.88
68329;BME280;55182;56.864;60.554;2023-12-07T11:04:35;81515.75;;;-143.60;70.98
68329;BME280;55182;56.864;60.554;2023-12-07T11:07:03;81527.84;;;-143.60;70.75
68329;BME280;55182;56.864;60.554;2023-12-07T11:09:32;81519.78;;;-143.60;71.09
68329;BME280;55182;56.864;60.554;2023-12-07T11:12:09;81523.81;;;-143.60;70.99
68329;BME280;55182;56.864;60.554;2023-12-07T11:14:36;81521.78;;;-143.60;70.87
68329;BME280;55182;56.864;60.554;2023-12-07T11:17:03;81531.84;;;-143.60;71.20
68329;BME280;55182;56.864;60.554;2023-12-07T11:21:57;81547.94;;;-143.60;71.41
68329;BME280;55182;56.864;60.554;2023-12-07T11:24:25;81543.94;;;-143.60;71.89
68329;BME280;55182;56.864;60.554;2023-12-07T11:26:57;81547.94;;;-143.60;72.05
68329;BME280;55182;56.864;60.554;2023-12-07T11:29:25;81547.94;;;-143.60;72.40
68329;BME280;55182;56.864;60.554;2023-12-07T11:31:55;81547.94;;;-143.60;72.34
68329;BME280;55182;56.864;60.554;2023-12-07T11:37:05;81551.97;;;-143.60;72.50
68329;BME280;55182;56.864;60.554;2023-12-07T11:39:34;81556.00;;;-143.60;72.26
68329;BME280;55182;56.864;60.554;2023-12-07T11:42:33;81556.00;;;-143.60;72.24
68329;BME280;55182;56.864;60.554;2023-12-07T11:44:51;81556.00;;;-143.60;72.26
68329;BME280;55182;56.864;60.554;2023-12-07T11:47:20;81564.06;;;-143.60;72.13
68329;BME280;55182;56.864;60.554;2023-12-07T11:49:46;81566.06;;;-143.60;72.04
68329;BME280;55182;56.864;60.554;2023-12-07T11:52:12;81566.06;;;-143.60;72.05
68329;BME280;55182;56.864;60.554;2023-12-07T11:54:38;81584.19;;;-143.60;72.26
68329;BME280;55182;56.864;60.554;2023-12-07T11:57:04;81590.22;;;-143.60;72.31
68329;BME280;55182;56.864;60.554;2023-12-07T11:59:29;81584.19;;;-143.60;72.06
68329;BME280;55182;56.864;60.554;2023-12-07T12:01:55;81586.19;;;-143.60;72.00
68329;BME280;55182;56.864;60.554;2023-12-07T12:04:23;81584.19;;;-143.60;72.02
68329;BME280;55182;56.864;60.554;2023-12-07T12:06:49;81592.22;;;-143.60;72.03
68329;BME280;55182;56.864;60.554;2023-12-07T12:09:14;81588.19;;;-143.60;72.24
68329;BME280;55182;56.864;60.554;2023-12-07T12:11:44;81594.22;;;-143.60;71.97
68329;BME280;55182;56.864;60.554;2023-12-07T12:14:09;81600.28;;;-143.60;71.95
68329;BME280;55182;56.864;60.554;2023-12-07T12:16:35;81602.28;;;-143.60;72.00
68329;BME280;55182;56.864;60.554;2023-12-07T12:19:00;81600.28;;;-143.60;72.16
68329;BME280;55182;56.864;60.554;2023-12-07T12:21:26;81612.34;;;-143.60;72.13
68329;BME280;55182;56.864;60.554;2023-12-07T12:23:52;81618.38;;;-143.60;72.29
68329;BME280;55182;56.864;60.554;2023-12-07T12:26:17;81632.47;;;-143.60;72.68
68329;BME280;55182;56.864;60.554;2023-12-07T12:28:43;81634.47;;;-143.60;72.62
68329;BME280;55182;56.864;60.554;2023-12-07T12:31:10;81640.50;;;-143.60;72.76